Time;durP1;ratioP1;P1;durP2;ratioP2;P2;SDS_P1;SDS_P2;PMS_P1;PMS_P2;Temp;Humidity;BMP_temperature;BMP_pressure;BME280_temperature;BME280_humidity;BME280_pressure;Samples;Min_cycle;Max_cycle;Signal;HPM_P1;HPM_P2
2022/01/22 00:01:23;;;;;;;;;15.00;13.00;;;;;-2.55;76.29;100784.59;4896026;29;8863;-70
2022/01/22 00:04:19;;;;;;;;;10.00;10.00;;;;;-2.68;76.98;100787.59;4860542;29;8899;-70
2022/01/22 00:07:15;;;;;;;;;12.67;10.67;;;;;-2.71;76.80;100779.13;4860223;29;8880;-70
2022/01/22 00:10:17;;;;;;;;;10.67;10.67;;;;;-2.72;76.97;100777.47;4860492;29;8899;-69
2022/01/22 00:16:16;;;;;;;;;13.00;13.00;;;;;-2.82;77.51;100778.09;4891644;29;8884;-70
2022/01/22 00:19:11;;;;;;;;;15.00;14.33;;;;;-2.83;77.86;100768.34;4896330;29;8856;-71
2022/01/22 00:22:07;;;;;;;;;11.67;11.67;;;;;-2.78;77.45;100773.03;4897864;29;8868;-70
2022/01/22 00:25:08;;;;;;;;;10.00;10.00;;;;;-2.72;77.50;100766.66;4890077;29;8862;-68
2022/01/22 00:28:04;;;;;;;;;10.00;10.00;;;;;-2.64;77.88;100766.25;4878058;29;8941;-69
2022/01/22 00:31:00;;;;;;;;;13.00;13.00;;;;;-2.50;77.83;100764.09;4878042;29;8989;-69
2022/01/22 00:33:55;;;;;;;;;10.67;10.67;;;;;-2.49;77.61;100763.84;4888956;29;8874;-70
2022/01/22 00:36:51;;;;;;;;;16.00;13.67;;;;;-2.57;77.68;100758.81;4878624;29;8877;-70
2022/01/22 00:39:46;;;;;;;;;14.33;14.33;;;;;-2.48;76.93;100761.97;4877249;29;8882;-70
2022/01/22 00:42:44;;;;;;;;;16.00;16.00;;;;;-2.48;77.25;100760.06;4878380;29;8897;-70
2022/01/22 00:45:39;;;;;;;;;17.33;17.33;;;;;-2.37;77.02;100758.38;4886593;29;8868;-69
2022/01/22 00:48:35;;;;;;;;;12.33;12.33;;;;;-2.23;77.55;100759.69;4897146;29;8998;-69
2022/01/22 00:51:30;;;;;;;;;16.33;15.67;;;;;-2.24;76.99;100742.63;4895946;29;8856;-69
2022/01/22 00:54:26;;;;;;;;;19.67;18.33;;;;;-2.13;76.77;100743.63;4898933;29;8959;-69
2022/01/22 00:57:21;;;;;;;;;15.67;13.00;;;;;-2.28;76.49;100746.91;4894288;29;8846;-69
2022/01/22 01:00:17;;;;;;;;;12.00;12.00;;;;;-2.24;76.20;100761.59;4881488;29;8859;-69
2022/01/22 01:02:46;;;;;;;;;11.67;8.33;;;;;-2.13;75.85;100761.78;4893544;29;8944;-69
2022/01/22 01:05:42;;;;;;;;;17.33;17.33;;;;;-2.18;75.71;100751.66;4874896;29;8878;-70
2022/01/22 01:08:37;;;;;;;;;11.33;11.33;;;;;-2.29;75.25;100755.28;4900326;29;8927;-68
2022/01/22 01:11:37;;;;;;;;;10.67;10.67;;;;;-2.28;74.95;100756.91;4900403;29;8868;-69
2022/01/22 01:14:08;;;;;;;;;11.33;11.33;;;;;-2.27;74.08;100761.25;4901003;29;8904;-69
2022/01/22 01:36:13;;;;;;;;;6.00;6.00;;;;;-2.45;73.96;100765.00;4882531;29;8877;-69
2022/01/22 01:39:12;;;;;;;;;12.00;12.00;;;;;-2.56;74.26;100764.00;4881279;29;8895;-69
2022/01/22 01:42:13;;;;;;;;;10.00;10.00;;;;;-2.53;73.84;100771.66;4881450;29;8858;-69
2022/01/22 01:45:09;;;;;;;;;8.33;8.33;;;;;-2.61;74.79;100765.78;4888379;29;8869;-69
2022/01/22 01:48:11;;;;;;;;;12.00;10.67;;;;;-2.59;74.42;100759.06;4863161;29;9651;-69
2022/01/22 01:51:07;;;;;;;;;7.67;7.67;;;;;-2.75;75.13;100769.84;4861194;29;8983;-69
2022/01/22 01:54:23;;;;;;;;;9.33;9.33;;;;;-2.92;75.57;100765.16;4862427;29;8873;-69
2022/01/22 02:00:25;;;;;;;;;10.00;10.00;;;;;-2.80;75.34;100768.66;4899482;29;8878;-69
2022/01/22 02:03:21;;;;;;;;;6.00;6.00;;;;;-2.80;75.70;100771.38;4897198;29;8872;-69
2022/01/22 02:06:17;;;;;;;;;15.33;13.00;;;;;-2.93;75.72;100760.81;4890367;29;8878;-71
2022/01/22 02:09:13;;;;;;;;;10.67;10.00;;;;;-2.76;75.67;100771.75;4880962;29;8871;-69
2022/01/22 02:11:41;;;;;;;;;11.33;11.33;;;;;-2.90;75.47;100773.06;4881159;29;8870;-70
2022/01/22 02:24:05;;;;;;;;;9.00;9.00;;;;;-3.32;77.35;100781.38;4861845;29;8937;-70
2022/01/22 02:27:02;;;;;;;;;13.00;13.00;;;;;-3.45;77.71;100778.91;4878853;29;9663;-70
2022/01/22 02:29:57;;;;;;;;;12.33;12.33;;;;;-3.48;77.86;100773.97;4890943;29;8885;-71
2022/01/22 02:36:24;;;;;;;;;12.33;12.33;;;;;-3.48;78.48;100785.63;4897235;29;8839;-70
2022/01/22 02:39:25;;;;;;;;;12.00;12.00;;;;;-3.57;79.48;100792.44;4897676;29;8886;-70
2022/01/22 02:42:24;;;;;;;;;14.33;12.33;;;;;-3.49;79.23;100789.38;4897449;29;8878;-71
2022/01/22 02:45:23;;;;;;;;;10.00;10.00;;;;;-3.61;79.15;100791.25;4888730;29;8862;-71
2022/01/22 02:48:18;;;;;;;;;14.00;13.00;;;;;-3.43;78.92;100790.31;4871471;29;8853;-71
2022/01/22 02:51:14;;;;;;;;;15.67;15.67;;;;;-3.49;78.75;100794.78;4861605;29;8877;-70
2022/01/22 02:54:09;;;;;;;;;11.67;10.67;;;;;-3.37;78.28;100789.41;4861243;29;9648;-71
2022/01/22 02:57:08;;;;;;;;;16.00;13.67;;;;;-3.47;78.82;100786.44;4884692;29;8879;-71
2022/01/22 03:00:11;;;;;;;;;9.33;9.33;;;;;-3.41;78.56;100785.50;4897055;29;8856;-71
2022/01/22 03:03:07;;;;;;;;;14.33;12.00;;;;;-3.56;78.59;100777.03;4897114;29;8863;-70
2022/01/22 03:06:03;;;;;;;;;10.67;9.67;;;;;-3.52;78.44;100789.03;4897672;29;8848;-70
2022/01/22 03:09:00;;;;;;;;;6.00;6.00;;;;;-3.44;77.92;100780.56;4897025;29;8856;-70
2022/01/22 03:22:28;;;;;;;;;6.67;6.33;;;;;-3.62;79.67;100800.41;4869020;29;8869;-70
2022/01/22 03:28:29;;;;;;;;;15.00;13.00;;;;;-3.29;79.90;100807.97;4860775;29;8877;-70
2022/01/22 03:31:25;;;;;;;;;18.67;17.67;;;;;-3.20;79.74;100814.66;4878348;29;8989;-71
2022/01/22 03:34:21;;;;;;;;;12.67;12.67;;;;;-3.15;79.63;100813.94;4879397;29;9617;-71
2022/01/22 03:37:16;;;;;;;;;18.00;16.67;;;;;-3.13;79.97;100812.66;4879092;29;9716;-71
2022/01/22 03:40:13;;;;;;;;;10.00;10.00;;;;;-3.04;79.57;100810.41;4881254;29;8962;-70
2022/01/22 03:43:09;;;;;;;;;8.33;8.33;;;;;-2.91;79.27;100814.72;4898086;29;8906;-71
2022/01/22 03:46:05;;;;;;;;;12.67;12.67;;;;;-2.99;79.63;100815.06;4897824;29;8951;-71
2022/01/22 03:49:01;;;;;;;;;13.33;12.00;;;;;-2.98;80.01;100828.41;4894389;29;8945;-70
2022/01/22 03:51:57;;;;;;;;;10.00;10.00;;;;;-2.80;79.26;100838.22;4879796;29;8866;-71
2022/01/22 03:54:52;;;;;;;;;10.33;9.33;;;;;-2.69;78.39;100841.97;4889323;29;8839;-71
2022/01/22 03:57:48;;;;;;;;;10.67;10.67;;;;;-2.59;77.84;100836.78;4879123;29;8881;-71
2022/01/22 04:00:44;;;;;;;;;6.33;6.00;;;;;-2.59;78.00;100836.78;4897102;29;8961;-71
2022/01/22 04:03:43;;;;;;;;;10.33;10.33;;;;;-2.56;77.89;100836.28;4896250;29;8902;-71
2022/01/22 04:09:57;;;;;;;;;15.00;15.00;;;;;-2.42;77.62;100844.94;4882189;29;8863;-70
2022/01/22 04:13:05;;;;;;;;;19.00;19.00;;;;;-2.32;77.42;100840.53;4878995;29;8866;-69
2022/01/22 04:16:01;;;;;;;;;12.67;12.67;;;;;-2.40;77.07;100840.09;4878911;29;8946;-70
2022/01/22 04:25:29;;;;;;;;;12.33;12.33;;;;;-2.55;77.62;100821.66;4878802;29;9715;-70
2022/01/22 04:28:24;;;;;;;;;16.67;16.67;;;;;-2.60;78.89;100830.53;4880981;29;8882;-69
2022/01/22 04:31:20;;;;;;;;;12.67;12.67;;;;;-2.53;78.97;100828.50;4883117;29;8858;-70
2022/01/22 04:34:16;;;;;;;;;13.00;13.00;;;;;-2.48;78.15;100833.19;4893334;29;8909;-68
2022/01/22 04:37:12;;;;;;;;;15.67;15.67;;;;;-2.42;77.78;100850.38;4897986;29;8852;-70
2022/01/22 04:40:08;;;;;;;;;15.00;15.00;;;;;-2.51;78.19;100839.09;4896333;29;8882;-71
2022/01/22 04:43:05;;;;;;;;;11.33;11.33;;;;;-2.57;78.44;100840.06;4874291;29;8896;-70
2022/01/22 04:46:20;;;;;;;;;10.67;10.67;;;;;-2.58;78.86;100844.66;4882233;29;9620;-70
2022/01/22 04:52:36;;;;;;;;;21.67;15.67;;;;;-2.68;79.45;100857.16;4900871;29;8884;-70
2022/01/22 04:55:32;;;;;;;;;11.33;9.00;;;;;-2.73;79.91;100857.06;4911098;29;8844;-69
2022/01/22 04:58:27;;;;;;;;;9.67;9.67;;;;;-2.55;79.48;100857.69;4901295;29;8882;-69
2022/01/22 05:01:23;;;;;;;;;12.33;10.67;;;;;-2.76;80.50;100861.06;4899045;29;8894;-69
2022/01/22 05:04:18;;;;;;;;;15.33;12.33;;;;;-2.83;80.11;100861.19;4882733;29;8867;-69
2022/01/22 05:07:14;;;;;;;;;10.67;10.67;;;;;-2.98;80.20;100860.88;4881826;29;8977;-70
2022/01/22 05:10:10;;;;;;;;;13.00;12.00;;;;;-2.92;81.14;100865.31;4880390;29;8883;-70
2022/01/22 05:13:05;;;;;;;;;13.00;12.00;;;;;-2.86;81.30;100867.06;4881358;29;8878;-69
2022/01/22 05:16:01;;;;;;;;;12.67;12.67;;;;;-2.83;81.60;100865.78;4870885;29;8865;-70
2022/01/22 05:19:06;;;;;;;;;10.67;10.67;;;;;-2.72;81.37;100867.63;4868250;29;8929;-70
2022/01/22 05:22:14;;;;;;;;;12.67;12.67;;;;;-2.68;81.10;100868.00;4900767;29;8862;-70
2022/01/22 05:25:18;;;;;;;;;12.33;8.33;;;;;-2.72;80.70;100875.75;4881529;29;8898;-70
2022/01/22 05:31:41;;;;;;;;;7.67;7.67;;;;;-2.85;80.71;100876.84;4862614;29;8978;-70
2022/01/22 05:37:51;;;;;;;;;14.33;14.33;;;;;-3.14;82.22;100883.22;4881361;29;8930;-69
2022/01/22 05:40:47;;;;;;;;;14.33;12.00;;;;;-3.10;82.69;100878.97;4893260;29;8882;-70
2022/01/22 05:43:42;;;;;;;;;13.67;12.67;;;;;-3.14;81.80;100878.66;4881201;29;8991;-69
2022/01/22 05:46:38;;;;;;;;;10.33;10.33;;;;;-3.00;81.75;100881.09;4880743;29;8885;-69
2022/01/22 05:49:39;;;;;;;;;9.00;9.00;;;;;-3.04;81.86;100893.47;4880306;29;8847;-70
2022/01/22 05:52:51;;;;;;;;;8.00;7.67;;;;;-3.11;82.46;100891.69;4882205;29;9777;-69
2022/01/22 06:02:14;;;;;;;;;12.33;12.33;;;;;-3.24;82.36;100891.09;4874835;29;8882;-69
2022/01/22 06:05:10;;;;;;;;;11.33;11.33;;;;;-3.24;81.79;100883.78;4880677;29;8930;-70
2022/01/22 06:08:05;;;;;;;;;9.00;9.00;;;;;-3.12;82.05;100883.81;4880704;29;8893;-68
2022/01/22 06:11:08;;;;;;;;;14.67;10.67;;;;;-3.10;81.22;100879.81;4880584;29;8875;-71
2022/01/22 06:14:04;;;;;;;;;8.33;8.33;;;;;-3.18;82.00;100879.34;4879154;29;8866;-70
2022/01/22 06:17:00;;;;;;;;;13.00;12.67;;;;;-3.19;81.75;100883.09;4881473;29;8858;-69
2022/01/22 06:19:56;;;;;;;;;12.00;10.67;;;;;-3.18;81.98;100887.44;4880859;29;8954;-70
2022/01/22 06:22:51;;;;;;;;;12.00;10.67;;;;;-3.08;81.55;100877.66;4895284;29;8947;-70
2022/01/22 06:25:47;;;;;;;;;13.00;12.00;;;;;-2.97;81.58;100878.75;4889660;29;8848;-69
2022/01/22 06:28:43;;;;;;;;;14.33;14.33;;;;;-3.04;81.76;100877.22;4861812;29;8850;-70
2022/01/22 06:31:39;;;;;;;;;15.33;15.33;;;;;-2.95;81.03;100882.03;4870526;29;9050;-70
2022/01/22 06:34:35;;;;;;;;;18.33;16.00;;;;;-2.85;81.18;100884.94;4861973;29;9035;-70
2022/01/22 06:37:30;;;;;;;;;17.33;15.00;;;;;-2.82;81.09;100887.19;4863897;29;8872;-69
2022/01/22 06:43:21;;;;;;;;;21.67;18.67;;;;;-2.67;79.78;100889.41;4880623;29;8866;-70
2022/01/22 06:46:17;;;;;;;;;19.67;19.00;;;;;-2.60;80.08;100890.09;4879749;29;8866;-70
2022/01/22 06:49:13;;;;;;;;;19.33;16.33;;;;;-2.43;79.35;100884.75;4877437;29;9710;-70
2022/01/22 06:52:09;;;;;;;;;18.00;18.00;;;;;-2.28;79.15;100885.06;4873907;29;8862;-71
2022/01/22 06:55:05;;;;;;;;;15.00;15.00;;;;;-2.25;78.77;100889.16;4897955;29;8860;-72
2022/01/22 06:58:01;;;;;;;;;19.67;18.67;;;;;-2.16;78.46;100890.44;4898821;29;8864;-72
2022/01/22 07:00:56;;;;;;;;;15.00;15.00;;;;;-1.97;77.71;100901.91;4898370;29;8864;-71
2022/01/22 07:03:55;;;;;;;;;19.00;18.67;;;;;-1.94;77.26;100906.00;4893590;29;8862;-70
2022/01/22 07:06:51;;;;;;;;;15.00;15.00;;;;;-1.89;76.59;100914.25;4879597;29;8874;-70
2022/01/22 07:09:47;;;;;;;;;17.33;14.33;;;;;-1.72;76.23;100907.78;4878087;29;8871;-70
2022/01/22 07:12:42;;;;;;;;;20.00;19.33;;;;;-1.67;76.05;100903.53;4878732;29;8934;-71
2022/01/22 07:15:38;;;;;;;;;13.00;12.33;;;;;-1.54;75.12;100905.91;4880916;29;8863;-71
2022/01/22 07:18:34;;;;;;;;;14.33;14.33;;;;;-1.45;75.14;100913.41;4859553;29;8865;-71
2022/01/22 07:21:31;;;;;;;;;14.00;13.33;;;;;-1.38;75.26;100918.69;4860908;29;8868;-71
2022/01/22 07:24:26;;;;;;;;;15.00;15.00;;;;;-1.22;74.92;100915.16;4876685;29;8854;-72
2022/01/22 07:27:22;;;;;;;;;13.00;13.00;;;;;-1.28;74.68;100924.28;4896538;29;8866;-73
2022/01/22 07:30:18;;;;;;;;;15.67;14.33;;;;;-1.16;75.00;100927.72;4879277;29;8846;-72
2022/01/22 07:33:15;;;;;;;;;15.67;13.67;;;;;-0.90;73.60;100923.50;4878031;29;8854;-72
2022/01/22 07:36:10;;;;;;;;;17.00;17.00;;;;;-0.97;73.03;100924.75;4887928;29;8874;-72
2022/01/22 07:39:06;;;;;;;;;12.67;12.67;;;;;-0.84;73.26;100918.97;4872082;29;8996;-71
2022/01/22 07:42:02;;;;;;;;;11.33;11.33;;;;;-0.76;72.35;100917.72;4872946;29;8934;-71
2022/01/22 07:44:58;;;;;;;;;16.00;16.00;;;;;-0.52;72.65;100921.03;4877395;29;9001;-71
2022/01/22 07:47:31;;;;;;;;;16.67;16.00;;;;;-0.44;71.21;100921.44;4892666;29;8886;-71
2022/01/22 07:49:59;;;;;;;;;14.33;13.67;;;;;-0.35;70.54;100919.91;4886595;29;8866;-70
2022/01/22 07:52:57;;;;;;;;;21.33;18.33;;;;;-0.65;72.11;100922.22;4879460;29;8862;-71
2022/01/22 07:55:52;;;;;;;;;12.00;12.00;;;;;-0.54;72.01;100917.75;4878869;29;8938;-71
2022/01/22 07:58:48;;;;;;;;;10.00;10.00;;;;;-0.20;71.54;100924.72;4879175;29;8933;-71
2022/01/22 08:01:44;;;;;;;;;13.00;13.00;;;;;-0.24;70.70;100942.59;4879524;29;8989;-70
2022/01/22 08:04:39;;;;;;;;;9.67;9.67;;;;;-0.09;70.32;100931.06;4881910;29;8878;-70
2022/01/22 08:07:35;;;;;;;;;21.67;19.67;;;;;0.20;69.49;100951.53;4876007;29;8882;-70
2022/01/22 08:10:31;;;;;;;;;13.67;13.00;;;;;0.26;68.35;100946.97;4878042;29;8853;-70
2022/01/22 08:13:27;;;;;;;;;18.67;18.67;;;;;0.30;68.30;100950.00;4896106;29;8840;-70
2022/01/22 08:16:22;;;;;;;;;13.67;13.67;;;;;-0.32;69.82;100952.00;4905262;29;8855;-70
2022/01/22 08:19:18;;;;;;;;;13.00;13.00;;;;;0.15;69.67;100965.06;4864121;29;9662;-70
2022/01/22 08:22:14;;;;;;;;;15.67;15.67;;;;;0.06;69.41;100961.16;4874303;29;8862;-70
2022/01/22 08:25:10;;;;;;;;;10.00;10.00;;;;;0.07;68.42;100964.69;4884178;29;8957;-70
2022/01/22 08:30:55;;;;;;;;;12.33;9.33;;;;;0.26;68.87;100961.41;4901304;29;8864;-70
2022/01/22 08:37:01;;;;;;;;;21.00;18.67;;;;;0.33;67.83;100963.94;4882142;29;8887;-71
2022/01/22 08:39:57;;;;;;;;;10.00;10.00;;;;;0.33;67.75;100968.56;4882174;29;8874;-71
2022/01/22 08:42:52;;;;;;;;;19.67;16.00;;;;;0.55;67.92;100963.88;4882016;29;8855;-70
2022/01/22 08:45:49;;;;;;;;;16.33;16.33;;;;;0.68;67.34;100976.22;4882410;29;8879;-71
2022/01/22 08:48:18;;;;;;;;;12.00;12.00;;;;;0.89;66.59;100974.50;4896992;29;8901;-71
2022/01/22 08:50:47;;;;;;;;;18.00;18.00;;;;;0.55;68.95;100970.13;4882626;29;8989;-71
2022/01/22 08:53:35;;;;;;;;;18.33;17.00;;;;;0.77;67.25;100967.34;4882430;29;8875;-71
2022/01/22 08:56:05;;;;;;;;;12.00;12.00;;;;;0.92;67.26;100968.53;4881088;29;8894;-71
2022/01/22 08:58:33;;;;;;;;;16.00;16.00;;;;;1.15;66.01;100964.63;4882126;29;11696;-71
2022/01/22 09:01:02;;;;;;;;;19.67;17.00;;;;;1.08;66.43;100968.44;4882158;29;11709;-71
2022/01/22 09:03:30;;;;;;;;;16.00;13.33;;;;;1.35;65.40;100964.78;4881933;29;11685;-71
2022/01/22 09:06:00;;;;;;;;;11.67;11.67;;;;;1.48;65.20;100958.88;4882039;29;11678;-71
2022/01/22 09:08:28;;;;;;;;;26.33;19.33;;;;;1.45;64.76;100956.66;4882071;29;12592;-71
2022/01/22 09:10:55;;;;;;;;;11.67;11.00;;;;;1.55;64.43;100955.91;4880725;29;11662;-70
2022/01/22 09:13:25;;;;;;;;;17.00;16.00;;;;;1.48;65.11;100963.50;4881655;29;11672;-71
2022/01/22 09:15:55;;;;;;;;;19.33;18.00;;;;;1.56;64.84;100960.28;4881918;29;11854;-72
2022/01/22 09:18:25;;;;;;;;;17.33;11.67;;;;;1.41;64.35;100969.19;4880897;29;11680;-71
2022/01/22 09:21:02;;;;;;;;;13.67;13.67;;;;;1.60;64.19;100961.38;4881930;29;11671;-72
2022/01/22 09:23:31;;;;;;;;;8.50;8.50;;;;;1.59;63.19;100957.00;4896092;29;11772;-71
2022/01/22 09:26:05;;;;;;;;;16.67;13.67;;;;;1.65;63.89;100956.78;4896084;29;11707;-71
2022/01/22 09:28:35;;;;;;;;;13.75;13.75;;;;;1.45;64.68;100962.09;4880061;29;11674;-70
2022/01/22 09:31:32;;;;;;;;;17.67;16.00;;;;;1.75;64.48;100958.72;4889765;29;11713;-71
2022/01/22 09:34:28;;;;;;;;;15.50;15.50;;;;;1.95;63.83;100967.00;4885158;29;11648;-72
2022/01/22 09:37:24;;;;;;;;;13.50;12.75;;;;;1.95;62.70;100964.28;4882209;29;11856;-71
2022/01/22 09:40:21;;;;;;;;;26.33;21.00;;;;;2.09;62.89;100961.88;4878572;29;11634;-71
2022/01/22 09:43:16;;;;;;;;;11.50;11.50;;;;;1.96;62.22;100956.91;4879912;29;11723;-71
2022/01/22 09:46:12;;;;;;;;;14.50;14.50;;;;;2.37;62.30;100965.22;4879753;29;11630;-71
2022/01/22 09:49:08;;;;;;;;;15.75;13.50;;;;;2.18;62.47;100965.72;4891078;29;11692;-71
2022/01/22 09:52:03;;;;;;;;;18.00;18.00;;;;;2.55;61.83;100966.63;4864489;29;12439;-70
2022/01/22 09:54:59;;;;;;;;;18.00;17.25;;;;;2.53;61.55;100969.66;4899792;29;11690;-69
2022/01/22 09:57:56;;;;;;;;;21.00;17.75;;;;;2.52;61.24;100967.97;4882767;29;11652;-70
2022/01/22 10:00:52;;;;;;;;;20.75;20.75;;;;;2.50;61.12;100965.53;4881077;29;12623;-70
2022/01/22 10:03:50;;;;;;;;;9.50;9.50;;;;;2.13;60.42;100967.59;4880524;29;11669;-70
2022/01/22 10:06:53;;;;;;;;;12.00;12.00;;;;;2.01;61.98;100962.41;4894635;29;12532;-70
2022/01/22 10:10:05;;;;;;;;;11.00;10.75;;;;;2.13;61.65;100973.06;4891441;29;11670;-70
2022/01/22 10:12:48;;;;;;;;;10.50;10.50;;;;;2.32;61.26;100976.97;4913162;29;11664;-71
2022/01/22 10:15:44;;;;;;;;;18.50;17.25;;;;;2.60;59.99;100972.09;4897501;29;11693;-70
2022/01/22 10:18:40;;;;;;;;;11.25;11.25;;;;;2.55;60.15;100980.28;4893741;29;11676;-71
2022/01/22 10:21:37;;;;;;;;;13.25;12.75;;;;;2.66;60.09;100969.09;4887632;29;11640;-70
2022/01/22 10:24:37;;;;;;;;;11.00;11.00;;;;;2.33;60.25;100966.88;4878804;29;11648;-71
2022/01/22 10:27:38;;;;;;;;;11.75;11.25;;;;;1.47;62.76;100954.50;4879262;29;11673;-71
2022/01/22 10:30:36;;;;;;;;;13.50;13.50;;;;;2.29;61.40;100957.56;4880947;29;11673;-69
2022/01/22 10:33:35;;;;;;;;;4.25;4.25;;;;;1.98;60.10;100956.63;4877590;29;11753;-70
2022/01/22 10:36:11;;;;;;;;;13.00;11.75;;;;;2.19;60.90;100952.91;4876962;29;11701;-69
2022/01/22 10:38:40;;;;;;;;;10.50;10.50;;;;;2.61;60.46;100952.72;4880479;29;11657;-70
2022/01/22 10:41:42;;;;;;;;;17.00;16.75;;;;;2.90;60.81;100958.47;4857607;29;11711;-69
2022/01/22 10:44:47;;;;;;;;;14.25;12.25;;;;;3.11;59.02;100966.66;4888191;29;11714;-70
2022/01/22 10:47:28;;;;;;;;;16.75;15.00;;;;;3.38;58.88;100960.91;4875194;29;12500;-70
2022/01/22 10:50:22;;;;;;;;;14.75;14.75;;;;;3.06;58.77;100960.09;4878823;29;11795;-70
2022/01/22 10:52:53;;;;;;;;;17.00;15.50;;;;;3.44;58.25;100943.38;4877255;29;11667;-69
2022/01/22 10:56:00;;;;;;;;;15.00;15.00;;;;;3.67;56.77;100947.41;4878313;29;11801;-69
2022/01/22 10:58:29;;;;;;;;;18.00;15.25;;;;;3.73;57.78;100944.38;4862013;29;11811;-70
2022/01/22 11:01:11;;;;;;;;;17.75;17.75;;;;;4.01;57.05;100936.63;4876134;29;11715;-70
2022/01/22 11:03:40;;;;;;;;;6.00;6.00;;;;;3.96;56.29;100942.91;4878153;29;11713;-70
2022/01/22 11:06:37;;;;;;;;;39.00;34.25;;;;;3.57;57.31;100935.41;4877085;29;12455;-70
2022/01/22 11:09:35;;;;;;;;;16.50;13.00;;;;;3.40;57.50;100937.66;4886973;29;11735;-70
2022/01/22 11:12:30;;;;;;;;;22.75;17.75;;;;;3.74;57.02;100942.47;4875043;29;11689;-69
2022/01/22 11:15:44;;;;;;;;;37.25;33.00;;;;;3.63;55.65;100944.44;4879017;29;11740;-70
2022/01/22 11:18:33;;;;;;;;;21.00;20.75;;;;;3.48;56.74;100947.19;4877253;29;11705;-71
2022/01/22 11:21:31;;;;;;;;;13.25;11.25;;;;;3.58;56.53;100947.97;4868974;29;11701;-70
2022/01/22 11:24:06;;;;;;;;;14.00;13.00;;;;;3.58;55.78;100950.72;4875918;29;11703;-70
2022/01/22 11:27:04;;;;;;;;;18.00;18.00;;;;;3.94;55.57;100953.34;4876813;29;12413;-70
2022/01/22 11:30:05;;;;;;;;;43.25;36.75;;;;;3.76;55.69;100951.22;4874562;29;11767;-70
2022/01/22 11:32:52;;;;;;;;;10.75;9.00;;;;;3.80;55.31;100952.28;4877926;29;11718;-70
2022/01/22 11:36:21;;;;;;;;;8.00;8.00;;;;;3.67;55.88;100952.88;4875161;29;11629;-70
2022/01/22 11:39:23;;;;;;;;;25.00;25.00;;;;;3.78;56.11;100951.75;4877130;29;11658;-69
2022/01/22 11:42:20;;;;;;;;;49.25;41.25;;;;;3.73;56.32;100947.13;4887339;29;11760;-70
2022/01/22 11:45:28;;;;;;;;;20.25;20.25;;;;;3.53;57.04;100945.28;4876874;29;11735;-70
2022/01/22 11:48:27;;;;;;;;;24.00;22.50;;;;;3.47;57.53;100945.56;4877157;29;11719;-70
2022/01/22 11:51:22;;;;;;;;;39.25;34.25;;;;;4.02;58.00;100951.94;4860584;29;11766;-72
2022/01/22 11:53:58;;;;;;;;;13.25;13.25;;;;;4.02;55.79;100958.22;4845710;29;12473;-69
2022/01/22 11:56:40;;;;;;;;;19.50;19.50;;;;;3.38;57.20;100964.44;4874294;29;11673;-69
2022/01/22 11:59:23;;;;;;;;;31.25;30.25;;;;;2.81;58.99;100956.56;4879047;29;11739;-69
2022/01/22 12:02:18;;;;;;;;;18.75;18.75;;;;;3.59;59.16;100963.28;4878862;29;11832;-69
2022/01/22 12:05:14;;;;;;;;;13.50;12.75;;;;;3.58;57.71;100961.66;4888930;29;12490;-69
2022/01/22 12:08:10;;;;;;;;;41.50;39.25;;;;;3.91;57.60;100962.13;4875005;29;11666;-70
2022/01/22 12:14:49;;;;;;;;;33.50;28.00;;;;;3.79;57.71;100951.47;4885608;29;11677;-70
2022/01/22 12:17:49;;;;;;;;;12.50;12.50;;;;;3.50;57.70;100945.81;4897418;29;11685;-70
2022/01/22 12:23:46;;;;;;;;;35.25;30.50;;;;;3.35;58.34;100957.59;4893305;29;11674;-70
2022/01/22 12:26:45;;;;;;;;;22.50;20.25;;;;;3.28;58.88;100965.28;4889711;29;11700;-70
2022/01/22 12:29:34;;;;;;;;;25.75;19.75;;;;;2.99;59.30;100973.25;4891257;29;12483;-69
2022/01/22 12:32:46;;;;;;;;;21.25;21.00;;;;;3.15;58.92;100951.38;4874195;29;11740;-70
2022/01/22 12:35:43;;;;;;;;;17.75;17.50;;;;;3.30;57.99;100967.75;4878544;29;11876;-70
2022/01/22 12:38:50;;;;;;;;;30.75;26.25;;;;;3.14;58.66;100966.91;4860582;29;12572;-71
2022/01/22 12:41:55;;;;;;;;;16.75;15.75;;;;;2.96;58.80;100962.03;4870392;29;11686;-70
2022/01/22 12:45:06;;;;;;;;;16.50;14.25;;;;;2.32;60.96;100966.03;4896940;29;11665;-70
2022/01/22 12:48:02;;;;;;;;;27.25;24.75;;;;;2.17;62.43;100963.28;4896625;29;11640;-71
2022/01/22 12:51:03;;;;;;;;;16.25;13.50;;;;;2.27;61.76;100965.19;4875209;29;11693;-70
2022/01/22 12:53:59;;;;;;;;;26.00;19.00;;;;;2.08;61.78;100960.25;4898665;29;11638;-71
2022/01/22 12:57:24;;;;;;;;;68.00;52.67;;;;;2.01;62.68;100956.94;4892055;29;11666;-71
2022/01/22 13:00:21;;;;;;;;;16.25;16.25;;;;;2.03;62.68;100956.66;4895665;29;9601;-71
2022/01/22 13:02:56;;;;;;;;;17.00;17.00;;;;;1.89;62.69;100961.78;4900022;29;11702;-72
2022/01/22 13:05:51;;;;;;;;;10.50;8.50;;;;;1.88;63.21;100963.69;4900335;29;11788;-72
2022/01/22 13:08:28;;;;;;;;;20.67;18.67;;;;;1.80;63.14;100963.41;4899733;29;11647;-71
2022/01/22 13:10:59;;;;;;;;;19.00;19.00;;;;;1.66;63.71;100969.31;4899600;29;11643;-72
2022/01/22 13:13:39;;;;;;;;;11.75;11.75;;;;;1.59;63.63;100967.91;4899446;29;11717;-72
2022/01/22 13:16:13;;;;;;;;;23.00;21.00;;;;;1.56;63.66;100965.72;4900544;29;12508;-71
2022/01/22 13:18:49;;;;;;;;;13.50;13.50;;;;;1.63;62.75;100972.59;4900966;29;11687;-72
2022/01/22 13:21:20;;;;;;;;;9.33;8.67;;;;;1.06;63.98;100965.13;4900313;29;11691;-71
2022/01/22 13:24:22;;;;;;;;;11.67;11.67;;;;;1.37;64.03;100971.59;4900618;29;11619;-72
2022/01/22 13:29:43;;;;;;;;;12.33;12.33;;;;;1.26;64.13;100977.25;4899490;29;11734;-72
2022/01/22 13:38:21;;;;;;;;;14.25;12.50;;;;;1.51;62.64;100982.88;4900024;29;11676;-72
2022/01/22 13:49:27;;;;;;;;;13.00;13.00;;;;;1.34;63.60;101004.84;4900232;29;11652;-71
2022/01/22 13:52:00;;;;;;;;;11.00;11.00;;;;;1.52;63.14;101000.03;4898491;29;11695;-70
2022/01/22 13:54:32;;;;;;;;;15.33;15.33;;;;;1.37;63.71;101006.22;4900020;29;12474;-71
2022/01/22 13:57:08;;;;;;;;;9.33;9.33;;;;;1.23;63.39;101005.84;4898591;29;11697;-71
2022/01/22 13:59:42;;;;;;;;;10.67;10.67;;;;;1.27;63.00;101012.41;4899037;29;11748;-71
2022/01/22 14:03:31;;;;;;;;;12.25;12.25;;;;;1.37;63.33;101020.66;4900070;29;11684;-71
2022/01/22 14:05:29;;;;;;;;;9.00;9.00;;;;;1.08;63.06;101027.53;4892750;29;11663;-72
2022/01/22 14:08:00;;;;;;;;;9.00;9.00;;;;;1.11;63.53;101021.56;4899766;29;11613;-71
2022/01/22 14:10:28;;;;;;;;;14.00;13.67;;;;;1.15;63.22;101019.97;4898175;29;11753;-71
2022/01/22 14:13:05;;;;;;;;;14.67;14.00;;;;;1.29;62.88;101023.88;4899944;29;11676;-71
2022/01/22 14:15:42;;;;;;;;;14.67;14.67;;;;;1.21;62.83;101024.34;4899375;29;11674;-71
2022/01/22 14:20:52;;;;;;;;;11.67;11.00;;;;;0.96;63.50;101019.50;4899615;29;11640;-71
2022/01/22 14:23:23;;;;;;;;;13.00;13.00;;;;;1.09;63.88;101023.72;4898343;29;11827;-70
2022/01/22 14:26:12;;;;;;;;;9.67;9.67;;;;;0.99;63.77;101024.44;4898947;29;11766;-72
2022/01/22 14:28:43;;;;;;;;;13.25;13.25;;;;;1.08;64.20;101038.44;4913672;29;11723;-71
2022/01/22 14:31:20;;;;;;;;;12.50;12.50;;;;;1.15;63.77;101039.03;4899484;29;11780;-72
2022/01/22 14:33:47;;;;;;;;;11.67;11.67;;;;;0.94;64.07;101045.38;4898027;29;11692;-71
2022/01/22 14:36:18;;;;;;;;;13.67;13.67;;;;;1.06;64.61;101046.00;4898948;29;11669;-70
2022/01/22 14:45:36;;;;;;;;;14.33;14.33;;;;;0.89;64.66;101051.59;4898619;29;11733;-70
2022/01/22 14:48:31;;;;;;;;;14.67;13.33;;;;;0.90;65.31;101052.41;4897027;29;11667;-71
2022/01/22 14:51:02;;;;;;;;;19.00;17.00;;;;;0.88;65.25;101057.28;4881685;29;11639;-71
2022/01/22 14:53:57;;;;;;;;;13.33;13.33;;;;;0.95;65.19;101056.00;4878404;29;11718;-71
2022/01/22 14:56:53;;;;;;;;;23.33;23.33;;;;;0.83;64.91;101056.16;4887073;29;11641;-71
2022/01/22 14:59:49;;;;;;;;;25.67;25.00;;;;;0.94;69.56;101057.09;4879704;29;11765;-70
2022/01/22 15:02:46;;;;;;;;;14.67;14.67;;;;;1.43;70.67;101047.97;4880700;29;8843;-70
2022/01/22 15:05:43;;;;;;;;;19.33;19.33;;;;;1.87;72.65;101054.81;4889073;29;12501;-69
2022/01/22 15:08:38;;;;;;;;;18.33;15.67;;;;;2.15;71.94;101053.59;4869287;29;8883;-69
2022/01/22 15:11:34;;;;;;;;;23.00;23.00;;;;;2.30;70.49;101066.50;4879309;29;11689;-69
2022/01/22 15:14:30;;;;;;;;;18.00;18.00;;;;;2.56;73.03;101077.50;4859165;29;11797;-70